sensor_id;sensor_type;location;lat;lon;timestamp;temperature;humidity
70151;DHT22;57517;43.562;19.540;2023-03-19T00:01:13;128.60;2252.80
70151;DHT22;57517;43.562;19.540;2023-03-19T00:03:38;128.30;2252.80
70151;DHT22;57517;43.562;19.540;2023-03-19T00:06:04;128.00;2252.80
70151;DHT22;57517;43.562;19.540;2023-03-19T00:08:31;128.10;2252.80
70151;DHT22;57517;43.562;19.540;2023-03-19T00:10:56;128.00;2252.80
70151;DHT22;57517;43.562;19.540;2023-03-19T00:13:22;103.30;2227.20
70151;DHT22;57517;43.562;19.540;2023-03-19T00:15:48;128.00;2252.80
70151;DHT22;57517;43.562;19.540;2023-03-19T00:18:14;103.00;2227.20
70151;DHT22;57517;43.562;19.540;2023-03-19T00:20:39;102.90;2227.20
70151;DHT22;57517;43.562;19.540;2023-03-19T00:23:05;103.00;2227.20
70151;DHT22;57517;43.562;19.540;2023-03-19T00:25:32;103.10;2227.20
70151;DHT22;57517;43.562;19.540;2023-03-19T00:27:58;128.00;2252.80
70151;DHT22;57517;43.562;19.540;2023-03-19T00:30:24;128.10;2252.80
70151;DHT22;57517;43.562;19.540;2023-03-19T00:32:49;128.30;2252.80
70151;DHT22;57517;43.562;19.540;2023-03-19T00:35:16;128.10;2252.80
70151;DHT22;57517;43.562;19.540;2023-03-19T00:37:41;128.20;2252.80
70151;DHT22;57517;43.562;19.540;2023-03-19T00:40:08;128.30;2252.80
70151;DHT22;57517;43.562;19.540;2023-03-19T00:42:34;128.10;2252.80
70151;DHT22;57517;43.562;19.540;2023-03-19T00:45:02;103.20;2227.20
70151;DHT22;57517;43.562;19.540;2023-03-19T00:47:28;102.90;2227.20
70151;DHT22;57517;43.562;19.540;2023-03-19T00:49:53;103.10;2227.20
70151;DHT22;57517;43.562;19.540;2023-03-19T00:52:19;103.20;2227.20
70151;DHT22;57517;43.562;19.540;2023-03-19T00:54:45;128.00;2252.80
70151;DHT22;57517;43.562;19.540;2023-03-19T00:57:10;103.10;2227.20
70151;DHT22;57517;43.562;19.540;2023-03-19T00:59:36;102.70;2227.20
70151;DHT22;57517;43.562;19.540;2023-03-19T01:02:03;102.80;2227.20
70151;DHT22;57517;43.562;19.540;2023-03-19T01:04:28;102.90;2227.20
70151;DHT22;57517;43.562;19.540;2023-03-19T01:06:54;103.10;2227.20
70151;DHT22;57517;43.562;19.540;2023-03-19T01:09:20;103.20;2227.20
70151;DHT22;57517;43.562;19.540;2023-03-19T01:11:46;128.00;2252.80
70151;DHT22;57517;43.562;19.540;2023-03-19T01:14:12;128.10;2252.80
70151;DHT22;57517;43.562;19.540;2023-03-19T01:16:40;128.10;2252.80
70151;DHT22;57517;43.562;19.540;2023-03-19T01:19:06;128.00;2252.80
70151;DHT22;57517;43.562;19.540;2023-03-19T01:21:32;103.20;2227.20
70151;DHT22;57517;43.562;19.540;2023-03-19T01:23:58;128.00;2252.80
70151;DHT22;57517;43.562;19.540;2023-03-19T01:26:24;128.10;2252.80
70151;DHT22;57517;43.562;19.540;2023-03-19T01:28:50;128.00;2252.80
70151;DHT22;57517;43.562;19.540;2023-03-19T01:31:16;103.30;2227.20
70151;DHT22;57517;43.562;19.540;2023-03-19T01:33:42;128.00;2252.80
70151;DHT22;57517;43.562;19.540;2023-03-19T01:36:08;103.30;2227.20
70151;DHT22;57517;43.562;19.540;2023-03-19T01:38:34;103.20;2227.20
70151;DHT22;57517;43.562;19.540;2023-03-19T01:41:00;103.20;2227.20
70151;DHT22;57517;43.562;19.540;2023-03-19T01:43:28;128.00;2252.80
70151;DHT22;57517;43.562;19.540;2023-03-19T01:46:07;103.20;2227.20
70151;DHT22;57517;43.562;19.540;2023-03-19T01:48:59;103.20;2227.20
70151;DHT22;57517;43.562;19.540;2023-03-19T01:51:27;103.30;2227.20
70151;DHT22;57517;43.562;19.540;2023-03-19T01:53:59;103.00;2227.20
70151;DHT22;57517;43.562;19.540;2023-03-19T01:56:30;103.20;2227.20
70151;DHT22;57517;43.562;19.540;2023-03-19T01:59:01;103.20;2227.20
70151;DHT22;57517;43.562;19.540;2023-03-19T02:01:28;103.20;2227.20
70151;DHT22;57517;43.562;19.540;2023-03-19T02:03:57;128.00;2252.80
70151;DHT22;57517;43.562;19.540;2023-03-19T02:06:24;103.30;2227.20
70151;DHT22;57517;43.562;19.540;2023-03-19T02:08:50;128.00;2252.80
70151;DHT22;57517;43.562;19.540;2023-03-19T02:11:18;103.20;2227.20
70151;DHT22;57517;43.562;19.540;2023-03-19T02:13:44;103.20;2227.20
70151;DHT22;57517;43.562;19.540;2023-03-19T02:16:11;103.30;2227.20
70151;DHT22;57517;43.562;19.540;2023-03-19T02:18:37;103.30;2227.20
70151;DHT22;57517;43.562;19.540;2023-03-19T02:21:08;103.10;2227.20
70151;DHT22;57517;43.562;19.540;2023-03-19T02:23:45;103.00;2227.20
70151;DHT22;57517;43.562;19.540;2023-03-19T02:26:14;102.70;2227.20
70151;DHT22;57517;43.562;19.540;2023-03-19T02:28:42;102.60;2227.20
70151;DHT22;57517;43.562;19.540;2023-03-19T02:31:09;77.70;2227.20
70151;DHT22;57517;43.562;19.540;2023-03-19T02:33:35;77.60;2227.20
70151;DHT22;57517;43.562;19.540;2023-03-19T02:36:02;77.40;2227.20
70151;DHT22;57517;43.562;19.540;2023-03-19T02:38:32;77.30;2227.20
70151;DHT22;57517;43.562;19.540;2023-03-19T02:41:03;77.30;2227.20
70151;DHT22;57517;43.562;19.540;2023-03-19T02:43:31;77.40;2227.20
70151;DHT22;57517;43.562;19.540;2023-03-19T02:45:57;77.50;2227.20
70151;DHT22;57517;43.562;19.540;2023-03-19T02:48:23;77.50;2227.20
70151;DHT22;57517;43.562;19.540;2023-03-19T02:50:49;77.70;2227.20
70151;DHT22;57517;43.562;19.540;2023-03-19T02:53:15;77.70;2227.20
70151;DHT22;57517;43.562;19.540;2023-03-19T02:55:41;77.70;2227.20
70151;DHT22;57517;43.562;19.540;2023-03-19T02:58:07;102.50;2227.20
70151;DHT22;57517;43.562;19.540;2023-03-19T03:00:33;102.50;2227.20
70151;DHT22;57517;43.562;19.540;2023-03-19T03:02:59;102.60;2227.20
70151;DHT22;57517;43.562;19.540;2023-03-19T03:05:26;102.70;2227.20
70151;DHT22;57517;43.562;19.540;2023-03-19T03:07:52;102.80;2227.20
70151;DHT22;57517;43.562;19.540;2023-03-19T03:10:18;102.90;2227.20
70151;DHT22;57517;43.562;19.540;2023-03-19T03:12:44;102.90;2227.20
70151;DHT22;57517;43.562;19.540;2023-03-19T03:15:11;102.90;2227.20
70151;DHT22;57517;43.562;19.540;2023-03-19T03:17:41;103.00;2227.20
70151;DHT22;57517;43.562;19.540;2023-03-19T03:20:08;102.80;2227.20
70151;DHT22;57517;43.562;19.540;2023-03-19T03:22:36;102.60;2227.20
70151;DHT22;57517;43.562;19.540;2023-03-19T03:25:03;102.50;2227.20
70151;DHT22;57517;43.562;19.540;2023-03-19T03:27:29;102.50;2227.20
70151;DHT22;57517;43.562;19.540;2023-03-19T03:29:54;102.40;2227.20
70151;DHT22;57517;43.562;19.540;2023-03-19T03:32:20;77.70;2227.20
70151;DHT22;57517;43.562;19.540;2023-03-19T03:34:46;77.50;2227.20
70151;DHT22;57517;43.562;19.540;2023-03-19T03:37:12;77.50;2227.20
70151;DHT22;57517;43.562;19.540;2023-03-19T03:39:38;77.60;2227.20
70151;DHT22;57517;43.562;19.540;2023-03-19T03:42:04;77.70;2227.20
70151;DHT22;57517;43.562;19.540;2023-03-19T03:44:30;102.50;2227.20
70151;DHT22;57517;43.562;19.540;2023-03-19T03:46:56;102.50;2227.20
70151;DHT22;57517;43.562;19.540;2023-03-19T03:49:21;102.60;2227.20
70151;DHT22;57517;43.562;19.540;2023-03-19T03:51:47;102.70;2227.20
70151;DHT22;57517;43.562;19.540;2023-03-19T03:54:13;102.70;2227.20
70151;DHT22;57517;43.562;19.540;2023-03-19T03:56:39;102.80;2227.20
70151;DHT22;57517;43.562;19.540;2023-03-19T03:59:05;102.70;2227.20
70151;DHT22;57517;43.562;19.540;2023-03-19T04:01:31;102.70;2227.20
70151;DHT22;57517;43.562;19.540;2023-03-19T04:03:58;102.60;2227.20
70151;DHT22;57517;43.562;19.540;2023-03-19T04:06:25;102.70;2227.20
70151;DHT22;57517;43.562;19.540;2023-03-19T04:08:52;102.80;2227.20
70151;DHT22;57517;43.562;19.540;2023-03-19T04:11:17;102.70;2227.20
70151;DHT22;57517;43.562;19.540;2023-03-19T04:13:43;102.70;2227.20
70151;DHT22;57517;43.562;19.540;2023-03-19T04:16:09;102.60;2227.20
70151;DHT22;57517;43.562;19.540;2023-03-19T04:18:36;102.50;2227.20
70151;DHT22;57517;43.562;19.540;2023-03-19T04:21:03;102.40;2227.20
70151;DHT22;57517;43.562;19.540;2023-03-19T04:23:29;77.70;2227.20
70151;DHT22;57517;43.562;19.540;2023-03-19T04:25:59;102.40;2227.20
70151;DHT22;57517;43.562;19.540;2023-03-19T04:28:26;77.70;2227.20
70151;DHT22;57517;43.562;19.540;2023-03-19T04:30:52;77.70;2227.20
70151;DHT22;57517;43.562;19.540;2023-03-19T04:33:22;77.60;2227.20
70151;DHT22;57517;43.562;19.540;2023-03-19T04:35:48;77.70;2227.20
70151;DHT22;57517;43.562;19.540;2023-03-19T04:38:14;77.60;2227.20
70151;DHT22;57517;43.562;19.540;2023-03-19T04:40:40;77.50;2227.20
70151;DHT22;57517;43.562;19.540;2023-03-19T04:43:06;77.70;2227.20
70151;DHT22;57517;43.562;19.540;2023-03-19T04:45:32;102.40;2227.20
70151;DHT22;57517;43.562;19.540;2023-03-19T04:47:58;102.50;2227.20
70151;DHT22;57517;43.562;19.540;2023-03-19T04:50:24;77.70;2227.20
70151;DHT22;57517;43.562;19.540;2023-03-19T04:52:49;77.60;2227.20
70151;DHT22;57517;43.562;19.540;2023-03-19T04:55:15;77.30;2227.20
70151;DHT22;57517;43.562;19.540;2023-03-19T04:57:41;77.10;2227.20
70151;DHT22;57517;43.562;19.540;2023-03-19T05:00:07;77.10;2227.20
70151;DHT22;57517;43.562;19.540;2023-03-19T05:02:34;77.10;2227.20
70151;DHT22;57517;43.562;19.540;2023-03-19T05:05:00;77.10;2227.20
70151;DHT22;57517;43.562;19.540;2023-03-19T05:07:26;77.00;2227.20
70151;DHT22;57517;43.562;19.540;2023-03-19T05:09:51;77.10;2227.20
70151;DHT22;57517;43.562;19.540;2023-03-19T05:12:17;77.30;2227.20
70151;DHT22;57517;43.562;19.540;2023-03-19T05:14:43;77.40;2227.20
70151;DHT22;57517;43.562;19.540;2023-03-19T05:17:08;77.60;2227.20
70151;DHT22;57517;43.562;19.540;2023-03-19T05:19:36;77.60;2227.20
70151;DHT22;57517;43.562;19.540;2023-03-19T05:22:03;77.50;2227.20
70151;DHT22;57517;43.562;19.540;2023-03-19T05:24:29;77.50;2227.20
70151;DHT22;57517;43.562;19.540;2023-03-19T05:26:55;77.50;2227.20
70151;DHT22;57517;43.562;19.540;2023-03-19T05:29:21;77.40;2227.20
70151;DHT22;57517;43.562;19.540;2023-03-19T05:31:47;77.40;2227.20
70151;DHT22;57517;43.562;19.540;2023-03-19T05:34:13;77.50;2227.20
70151;DHT22;57517;43.562;19.540;2023-03-19T05:36:39;77.50;2227.20
70151;DHT22;57517;43.562;19.540;2023-03-19T05:39:05;77.60;2227.20
70151;DHT22;57517;43.562;19.540;2023-03-19T05:41:30;102.50;2227.20
70151;DHT22;57517;43.562;19.540;2023-03-19T05:43:56;102.60;2227.20
70151;DHT22;57517;43.562;19.540;2023-03-19T05:46:22;102.70;2227.20
70151;DHT22;57517;43.562;19.540;2023-03-19T05:48:49;102.60;2227.20
70151;DHT22;57517;43.562;19.540;2023-03-19T05:51:14;77.60;2227.20
70151;DHT22;57517;43.562;19.540;2023-03-19T05:53:40;77.60;2227.20
70151;DHT22;57517;43.562;19.540;2023-03-19T05:56:07;102.60;2227.20
70151;DHT22;57517;43.562;19.540;2023-03-19T05:58:32;153.80;2227.20
70151;DHT22;57517;43.562;19.540;2023-03-19T06:00:58;179.90;1894.40
70151;DHT22;57517;43.562;19.540;2023-03-19T06:03:24;205.70;1612.80
70151;DHT22;57517;43.562;19.540;2023-03-19T06:05:51;256.00;1510.40
70151;DHT22;57517;43.562;19.540;2023-03-19T06:08:18;281.90;1408.00
70151;DHT22;57517;43.562;19.540;2023-03-19T06:10:44;281.80;1356.80
70151;DHT22;57517;43.562;19.540;2023-03-19T06:13:10;282.20;1331.20
70151;DHT22;57517;43.562;19.540;2023-03-19T06:15:36;282.40;1305.60
70151;DHT22;57517;43.562;19.540;2023-03-19T06:18:02;307.80;1280.00
70151;DHT22;57517;43.562;19.540;2023-03-19T06:20:28;308.10;1228.80
70151;DHT22;57517;43.562;19.540;2023-03-19T06:22:54;333.10;1228.80
70151;DHT22;57517;43.562;19.540;2023-03-19T06:25:20;333.40;1203.20
70151;DHT22;57517;43.562;19.540;2023-03-19T06:27:46;358.40;1152.00
70151;DHT22;57517;43.562;19.540;2023-03-19T06:30:12;359.30;1100.80
70151;DHT22;57517;43.562;19.540;2023-03-19T06:32:38;359.30;1075.20
70151;DHT22;57517;43.562;19.540;2023-03-19T06:35:04;384.40;1049.60
70151;DHT22;57517;43.562;19.540;2023-03-19T06:37:31;410.10;1049.60
70151;DHT22;57517;43.562;19.540;2023-03-19T06:39:57;461.20;972.80
70151;DHT22;57517;43.562;19.540;2023-03-19T06:42:23;486.40;896.00
70151;DHT22;57517;43.562;19.540;2023-03-19T06:44:48;512.10;870.40
70151;DHT22;57517;43.562;19.540;2023-03-19T06:47:14;512.10;844.80
70151;DHT22;57517;43.562;19.540;2023-03-19T06:49:40;512.40;819.20
70151;DHT22;57517;43.562;19.540;2023-03-19T06:52:06;512.10;819.20
70151;DHT22;57517;43.562;19.540;2023-03-19T06:54:32;512.30;819.20
70151;DHT22;57517;43.562;19.540;2023-03-19T06:56:58;512.70;819.20
70151;DHT22;57517;43.562;19.540;2023-03-19T06:59:24;537.70;793.60
70151;DHT22;57517;43.562;19.540;2023-03-19T07:01:50;537.90;793.60
70151;DHT22;57517;43.562;19.540;2023-03-19T07:04:17;563.20;819.20
70151;DHT22;57517;43.562;19.540;2023-03-19T07:06:47;589.00;768.00
70151;DHT22;57517;43.562;19.540;2023-03-19T07:09:14;589.40;742.40
70151;DHT22;57517;43.562;19.540;2023-03-19T07:11:39;615.10;665.60
70151;DHT22;57517;43.562;19.540;2023-03-19T07:14:06;614.70;691.20
70151;DHT22;57517;43.562;19.540;2023-03-19T07:16:32;615.00;665.60
70151;DHT22;57517;43.562;19.540;2023-03-19T07:18:57;640.30;640.00
70151;DHT22;57517;43.562;19.540;2023-03-19T07:21:23;665.60;665.60
70151;DHT22;57517;43.562;19.540;2023-03-19T07:23:49;640.70;614.40
70151;DHT22;57517;43.562;19.540;2023-03-19T07:26:16;666.40;614.40
70151;DHT22;57517;43.562;19.540;2023-03-19T07:28:42;691.40;614.40
70151;DHT22;57517;43.562;19.540;2023-03-19T07:31:07;666.50;614.40
70151;DHT22;57517;43.562;19.540;2023-03-19T07:33:33;691.70;588.80
70151;DHT22;57517;43.562;19.540;2023-03-19T07:35:59;717.20;588.80
70151;DHT22;57517;43.562;19.540;2023-03-19T07:38:25;742.40;588.80
70151;DHT22;57517;43.562;19.540;2023-03-19T07:40:51;743.20;537.60
70151;DHT22;57517;43.562;19.540;2023-03-19T07:43:16;768.20;537.60
70151;DHT22;57517;43.562;19.540;2023-03-19T07:45:42;794.10;537.60
70151;DHT22;57517;43.562;19.540;2023-03-19T07:48:08;768.60;512.00
70151;DHT22;57517;43.562;19.540;2023-03-19T07:50:34;794.20;512.00
70151;DHT22;57517;43.562;19.540;2023-03-19T07:52:59;793.90;537.60
70151;DHT22;57517;43.562;19.540;2023-03-19T07:55:25;794.00;537.60
70151;DHT22;57517;43.562;19.540;2023-03-19T07:57:51;768.50;512.00
70151;DHT22;57517;43.562;19.540;2023-03-19T08:00:17;768.60;537.60
70151;DHT22;57517;43.562;19.540;2023-03-19T08:02:43;768.70;512.00
70151;DHT22;57517;43.562;19.540;2023-03-19T08:05:09;793.90;537.60
70151;DHT22;57517;43.562;19.540;2023-03-19T08:07:35;844.80;512.00
70151;DHT22;57517;43.562;19.540;2023-03-19T08:10:03;871.10;460.80
70151;DHT22;57517;43.562;19.540;2023-03-19T08:14:56;896.60;435.20
70151;DHT22;57517;43.562;19.540;2023-03-19T08:17:22;921.80;435.20
70151;DHT22;57517;43.562;19.540;2023-03-19T08:19:47;871.10;435.20
70151;DHT22;57517;43.562;19.540;2023-03-19T08:22:13;871.30;435.20
70151;DHT22;57517;43.562;19.540;2023-03-19T08:24:39;870.50;435.20
70151;DHT22;57517;43.562;19.540;2023-03-19T08:27:05;896.20;435.20
70151;DHT22;57517;43.562;19.540;2023-03-19T08:29:31;896.50;409.60
70151;DHT22;57517;43.562;19.540;2023-03-19T08:31:56;896.20;435.20
70151;DHT22;57517;43.562;19.540;2023-03-19T08:34:23;870.80;460.80
70151;DHT22;57517;43.562;19.540;2023-03-19T08:36:49;896.50;435.20
70151;DHT22;57517;43.562;19.540;2023-03-19T08:39:15;896.70;409.60
70151;DHT22;57517;43.562;19.540;2023-03-19T08:41:41;921.60;435.20
70151;DHT22;57517;43.562;19.540;2023-03-19T08:44:06;947.20;435.20
70151;DHT22;57517;43.562;19.540;2023-03-19T08:46:32;947.50;435.20
70151;DHT22;57517;43.562;19.540;2023-03-19T08:48:58;947.30;409.60
70151;DHT22;57517;43.562;19.540;2023-03-19T08:51:25;921.80;435.20
70151;DHT22;57517;43.562;19.540;2023-03-19T08:53:52;896.00;435.20
70151;DHT22;57517;43.562;19.540;2023-03-19T08:56:17;870.70;460.80
70151;DHT22;57517;43.562;19.540;2023-03-19T08:58:43;845.70;460.80
70151;DHT22;57517;43.562;19.540;2023-03-19T09:01:11;871.20;435.20
70151;DHT22;57517;43.562;19.540;2023-03-19T09:03:39;896.90;409.60
70151;DHT22;57517;43.562;19.540;2023-03-19T09:06:07;896.50;409.60
70151;DHT22;57517;43.562;19.540;2023-03-19T09:08:34;921.60;435.20
70151;DHT22;57517;43.562;19.540;2023-03-19T09:10:59;921.80;435.20
70151;DHT22;57517;43.562;19.540;2023-03-19T09:13:25;947.80;409.60
70151;DHT22;57517;43.562;19.540;2023-03-19T09:20:46;947.20;435.20
70151;DHT22;57517;43.562;19.540;2023-03-19T09:23:12;922.20;435.20
70151;DHT22;57517;43.562;19.540;2023-03-19T09:25:38;922.30;409.60
70151;DHT22;57517;43.562;19.540;2023-03-19T09:30:30;896.10;435.20
70151;DHT22;57517;43.562;19.540;2023-03-19T09:32:56;845.20;486.40
70151;DHT22;57517;43.562;19.540;2023-03-19T09:35:22;819.60;486.40
70151;DHT22;57517;43.562;19.540;2023-03-19T09:37:47;819.60;486.40
70151;DHT22;57517;43.562;19.540;2023-03-19T09:40:32;819.40;486.40
70151;DHT22;57517;43.562;19.540;2023-03-19T09:45:39;794.30;512.00
70151;DHT22;57517;43.562;19.540;2023-03-19T09:48:08;820.10;486.40
70151;DHT22;57517;43.562;19.540;2023-03-19T09:50:36;871.00;460.80
70151;DHT22;57517;43.562;19.540;2023-03-19T09:53:24;896.80;435.20
70151;DHT22;57517;43.562;19.540;2023-03-19T09:55:57;921.80;435.20
70151;DHT22;57517;43.562;19.540;2023-03-19T09:58:34;922.10;435.20
70151;DHT22;57517;43.562;19.540;2023-03-19T10:01:02;922.10;435.20
70151;DHT22;57517;43.562;19.540;2023-03-19T10:03:53;870.70;486.40
70151;DHT22;57517;43.562;19.540;2023-03-19T10:06:36;820.10;486.40
70151;DHT22;57517;43.562;19.540;2023-03-19T10:12:56;743.30;537.60
70151;DHT22;57517;43.562;19.540;2023-03-19T10:22:54;640.20;640.00
70151;DHT22;57517;43.562;19.540;2023-03-19T10:25:24;614.80;665.60
70151;DHT22;57517;43.562;19.540;2023-03-19T10:27:59;614.50;665.60
70151;DHT22;57517;43.562;19.540;2023-03-19T10:30:30;589.40;716.80
70151;DHT22;57517;43.562;19.540;2023-03-19T10:33:24;564.00;742.40
70151;DHT22;57517;43.562;19.540;2023-03-19T10:36:01;564.00;742.40
70151;DHT22;57517;43.562;19.540;2023-03-19T10:38:28;563.60;742.40
70151;DHT22;57517;43.562;19.540;2023-03-19T10:43:59;563.90;742.40
70151;DHT22;57517;43.562;19.540;2023-03-19T10:46:26;563.90;716.80
70151;DHT22;57517;43.562;19.540;2023-03-19T10:48:51;563.70;716.80
70151;DHT22;57517;43.562;19.540;2023-03-19T10:51:23;563.60;742.40
70151;DHT22;57517;43.562;19.540;2023-03-19T10:53:52;563.60;742.40
70151;DHT22;57517;43.562;19.540;2023-03-19T10:56:25;563.60;742.40
70151;DHT22;57517;43.562;19.540;2023-03-19T10:59:03;563.50;716.80
70151;DHT22;57517;43.562;19.540;2023-03-19T11:01:40;563.50;742.40
70151;DHT22;57517;43.562;19.540;2023-03-19T11:04:22;563.20;742.40
70151;DHT22;57517;43.562;19.540;2023-03-19T11:06:50;563.20;742.40
70151;DHT22;57517;43.562;19.540;2023-03-19T11:09:49;563.20;768.00
70151;DHT22;57517;43.562;19.540;2023-03-19T11:12:31;538.30;768.00
70151;DHT22;57517;43.562;19.540;2023-03-19T11:14:59;538.40;793.60
70151;DHT22;57517;43.562;19.540;2023-03-19T11:17:37;538.50;768.00
70151;DHT22;57517;43.562;19.540;2023-03-19T11:20:29;563.20;768.00
70151;DHT22;57517;43.562;19.540;2023-03-19T11:22:57;563.20;844.80
70151;DHT22;57517;43.562;19.540;2023-03-19T11:28:16;563.30;819.20
70151;DHT22;57517;43.562;19.540;2023-03-19T11:33:42;563.20;819.20
70151;DHT22;57517;43.562;19.540;2023-03-19T11:36:22;563.30;793.60
70151;DHT22;57517;43.562;19.540;2023-03-19T11:55:38;563.20;742.40
70151;DHT22;57517;43.562;19.540;2023-03-19T11:58:28;538.50;716.80
70151;DHT22;57517;43.562;19.540;2023-03-19T12:04:15;538.20;691.20
70151;DHT22;57517;43.562;19.540;2023-03-19T12:21:20;538.30;691.20
70151;DHT22;57517;43.562;19.540;2023-03-19T12:24:13;538.50;691.20
70151;DHT22;57517;43.562;19.540;2023-03-19T12:26:53;538.50;691.20
70151;DHT22;57517;43.562;19.540;2023-03-19T12:29:41;563.20;716.80
70151;DHT22;57517;43.562;19.540;2023-03-19T12:34:57;563.20;665.60
70151;DHT22;57517;43.562;19.540;2023-03-19T12:37:34;563.20;665.60
70151;DHT22;57517;43.562;19.540;2023-03-19T12:40:11;563.20;691.20
70151;DHT22;57517;43.562;19.540;2023-03-19T12:42:40;538.40;640.00
70151;DHT22;57517;43.562;19.540;2023-03-19T12:45:43;538.30;640.00
70151;DHT22;57517;43.562;19.540;2023-03-19T12:48:27;538.30;640.00
70151;DHT22;57517;43.562;19.540;2023-03-19T12:50:57;538.30;640.00
70151;DHT22;57517;43.562;19.540;2023-03-19T12:53:45;538.30;640.00
70151;DHT22;57517;43.562;19.540;2023-03-19T13:01:23;538.20;614.40
70151;DHT22;57517;43.562;19.540;2023-03-19T13:03:58;538.20;614.40
70151;DHT22;57517;43.562;19.540;2023-03-19T13:06:31;538.20;614.40
70151;DHT22;57517;43.562;19.540;2023-03-19T13:09:03;538.20;614.40
70151;DHT22;57517;43.562;19.540;2023-03-19T13:12:00;538.30;614.40
70151;DHT22;57517;43.562;19.540;2023-03-19T13:17:15;538.40;640.00
70151;DHT22;57517;43.562;19.540;2023-03-19T13:19:51;538.40;665.60
70151;DHT22;57517;43.562;19.540;2023-03-19T13:22:22;538.50;768.00
70151;DHT22;57517;43.562;19.540;2023-03-19T13:24:49;563.20;691.20
70151;DHT22;57517;43.562;19.540;2023-03-19T13:27:32;563.30;742.40
70151;DHT22;57517;43.562;19.540;2023-03-19T13:32:49;563.20;742.40
70151;DHT22;57517;43.562;19.540;2023-03-19T13:40:56;563.30;716.80
70151;DHT22;57517;43.562;19.540;2023-03-19T13:59:36;563.30;768.00
70151;DHT22;57517;43.562;19.540;2023-03-19T14:05:00;563.40;793.60
70151;DHT22;57517;43.562;19.540;2023-03-19T14:07:36;563.40;768.00
70151;DHT22;57517;43.562;19.540;2023-03-19T14:10:21;563.40;768.00
70151;DHT22;57517;43.562;19.540;2023-03-19T14:12:50;563.30;793.60
70151;DHT22;57517;43.562;19.540;2023-03-19T14:15:23;563.30;819.20
70151;DHT22;57517;43.562;19.540;2023-03-19T14:20:25;563.30;793.60
70151;DHT22;57517;43.562;19.540;2023-03-19T14:23:10;563.40;819.20
70151;DHT22;57517;43.562;19.540;2023-03-19T14:28:40;563.40;793.60
70151;DHT22;57517;43.562;19.540;2023-03-19T14:31:34;563.40;793.60
70151;DHT22;57517;43.562;19.540;2023-03-19T14:36:40;563.30;819.20
70151;DHT22;57517;43.562;19.540;2023-03-19T14:39:31;563.30;844.80
70151;DHT22;57517;43.562;19.540;2023-03-19T14:42:19;563.40;870.40
70151;DHT22;57517;43.562;19.540;2023-03-19T14:53:52;563.40;819.20
70151;DHT22;57517;43.562;19.540;2023-03-19T14:56:46;563.40;819.20
70151;DHT22;57517;43.562;19.540;2023-03-19T14:59:12;563.30;819.20
70151;DHT22;57517;43.562;19.540;2023-03-19T15:01:44;563.20;819.20
70151;DHT22;57517;43.562;19.540;2023-03-19T15:04:13;563.20;819.20
70151;DHT22;57517;43.562;19.540;2023-03-19T15:06:43;563.20;844.80
70151;DHT22;57517;43.562;19.540;2023-03-19T15:09:29;563.20;819.20
70151;DHT22;57517;43.562;19.540;2023-03-19T15:15:32;538.50;768.00
70151;DHT22;57517;43.562;19.540;2023-03-19T15:18:10;538.50;819.20
70151;DHT22;57517;43.562;19.540;2023-03-19T15:20:42;538.50;793.60
70151;DHT22;57517;43.562;19.540;2023-03-19T15:23:11;538.50;768.00
70151;DHT22;57517;43.562;19.540;2023-03-19T15:25:52;538.50;742.40
70151;DHT22;57517;43.562;19.540;2023-03-19T15:28:23;538.40;768.00
70151;DHT22;57517;43.562;19.540;2023-03-19T15:31:01;538.40;768.00
70151;DHT22;57517;43.562;19.540;2023-03-19T15:33:33;538.40;793.60
70151;DHT22;57517;43.562;19.540;2023-03-19T15:36:07;538.30;793.60
70151;DHT22;57517;43.562;19.540;2023-03-19T15:38:38;538.30;793.60
70151;DHT22;57517;43.562;19.540;2023-03-19T15:41:07;538.30;793.60
70151;DHT22;57517;43.562;19.540;2023-03-19T15:43:38;538.30;819.20
70151;DHT22;57517;43.562;19.540;2023-03-19T15:46:09;538.30;768.00
70151;DHT22;57517;43.562;19.540;2023-03-19T15:51:03;538.30;793.60
70151;DHT22;57517;43.562;19.540;2023-03-19T15:53:33;538.30;793.60
70151;DHT22;57517;43.562;19.540;2023-03-19T15:56:01;538.30;819.20
70151;DHT22;57517;43.562;19.540;2023-03-19T15:58:30;538.30;844.80
70151;DHT22;57517;43.562;19.540;2023-03-19T16:00:58;538.20;819.20
70151;DHT22;57517;43.562;19.540;2023-03-19T16:03:33;538.20;870.40
70151;DHT22;57517;43.562;19.540;2023-03-19T16:06:02;538.10;870.40
70151;DHT22;57517;43.562;19.540;2023-03-19T16:08:28;538.00;844.80
70151;DHT22;57517;43.562;19.540;2023-03-19T16:11:09;537.90;844.80
70151;DHT22;57517;43.562;19.540;2023-03-19T16:13:40;537.90;844.80
70151;DHT22;57517;43.562;19.540;2023-03-19T16:18:46;537.60;896.00
70151;DHT22;57517;43.562;19.540;2023-03-19T16:21:35;512.90;870.40
70151;DHT22;57517;43.562;19.540;2023-03-19T16:24:27;512.70;870.40
70151;DHT22;57517;43.562;19.540;2023-03-19T16:27:01;512.60;896.00
70151;DHT22;57517;43.562;19.540;2023-03-19T16:29:36;512.50;921.60
70151;DHT22;57517;43.562;19.540;2023-03-19T16:34:51;512.20;896.00
70151;DHT22;57517;43.562;19.540;2023-03-19T16:37:27;512.10;921.60
70151;DHT22;57517;43.562;19.540;2023-03-19T16:39:57;487.30;947.20
70151;DHT22;57517;43.562;19.540;2023-03-19T16:45:02;487.20;947.20
70151;DHT22;57517;43.562;19.540;2023-03-19T16:47:28;487.10;972.80
70151;DHT22;57517;43.562;19.540;2023-03-19T16:49:54;486.90;972.80
70151;DHT22;57517;43.562;19.540;2023-03-19T16:52:22;486.70;998.40
70151;DHT22;57517;43.562;19.540;2023-03-19T16:54:49;486.60;998.40
70151;DHT22;57517;43.562;19.540;2023-03-19T16:57:16;486.60;972.80
70151;DHT22;57517;43.562;19.540;2023-03-19T16:59:44;486.50;998.40
70151;DHT22;57517;43.562;19.540;2023-03-19T17:02:15;461.70;998.40
70151;DHT22;57517;43.562;19.540;2023-03-19T17:04:41;461.50;1049.60
70151;DHT22;57517;43.562;19.540;2023-03-19T17:07:08;461.00;1075.20
70151;DHT22;57517;43.562;19.540;2023-03-19T17:09:34;460.90;1075.20
70151;DHT22;57517;43.562;19.540;2023-03-19T17:12:01;460.80;1075.20